createdAt,value
2018-09-28T00:00:48.540Z,5.53
2018-09-28T00:03:18.745Z,6.30
2018-09-28T00:05:48.487Z,5.80
2018-09-28T00:08:18.238Z,5.70
2018-09-28T00:10:47.970Z,6.47
2018-09-28T00:13:17.885Z,6.17
2018-09-28T00:15:47.584Z,6.23
2018-09-28T00:18:17.318Z,5.80
2018-09-28T00:20:47.281Z,5.75
2018-09-28T00:23:17.027Z,5.67
2018-09-28T00:25:46.708Z,5.90
2018-09-28T00:28:16.951Z,9.85
2018-09-28T00:30:47.993Z,8.00
2018-09-28T00:33:17.701Z,6.90
2018-09-28T00:35:47.323Z,8.00
2018-09-28T00:38:17.024Z,7.17
2018-09-28T00:40:46.703Z,7.03
2018-09-28T00:43:16.418Z,6.83
2018-09-28T00:45:46.530Z,6.10
2018-09-28T00:48:16.544Z,6.37
2018-09-28T00:50:46.384Z,10.17
2018-09-28T00:53:16.083Z,7.87
2018-09-28T00:55:45.879Z,6.87
2018-09-28T00:58:15.743Z,7.13
2018-09-28T01:00:45.535Z,6.75
2018-09-28T01:03:15.119Z,7.23
2018-09-28T01:05:44.828Z,6.65
2018-09-28T01:08:14.611Z,14.50
2018-09-28T01:10:44.746Z,7.42
2018-09-28T01:13:14.419Z,7.13
2018-09-28T01:15:44.294Z,6.67
2018-09-28T01:18:14.008Z,7.03
2018-09-28T01:20:44.648Z,7.90
2018-09-28T01:23:14.372Z,8.00
2018-09-28T01:25:45.080Z,7.97
2018-09-28T01:33:12.154Z,17.50
2018-09-28T01:35:41.977Z,8.60
2018-09-28T01:38:11.626Z,6.70
2018-09-28T01:40:41.347Z,6.83
2018-09-28T01:43:11.033Z,7.60
2018-09-28T01:45:40.929Z,7.13
2018-09-28T01:48:10.938Z,7.12
2018-09-28T01:50:40.805Z,6.37
2018-09-28T01:53:10.415Z,8.03
2018-09-28T01:55:40.139Z,7.17
2018-09-28T01:58:10.016Z,7.13
2018-09-28T02:00:39.596Z,8.60
2018-09-28T02:03:09.223Z,6.80
2018-09-28T02:05:38.788Z,8.07
2018-09-28T02:08:08.809Z,8.03
2018-09-28T02:10:38.490Z,8.73
2018-09-28T02:13:08.202Z,9.07
2018-09-28T02:15:38.081Z,8.70
2018-09-28T02:18:08.772Z,9.05
2018-09-28T02:25:35.013Z,7.43
2018-09-28T02:28:04.679Z,7.70
2018-09-28T02:30:34.309Z,8.57
2018-09-28T02:33:04.062Z,25.17
2018-09-28T02:35:33.831Z,39.50
2018-09-28T02:38:03.391Z,19.50
2018-09-28T02:40:33.174Z,9.33
2018-09-28T02:43:02.888Z,8.67
2018-09-28T02:45:32.714Z,8.60
2018-09-28T02:48:02.335Z,8.10
2018-09-28T02:50:32.043Z,8.77
2018-09-28T02:53:01.707Z,8.63
2018-09-28T02:55:31.425Z,8.47
2018-09-28T02:58:00.982Z,8.18
2018-09-28T03:00:30.548Z,8.43
2018-09-28T03:03:00.209Z,8.43
2018-09-28T03:05:31.175Z,8.53
2018-09-28T03:08:00.983Z,7.77
2018-09-28T03:10:30.724Z,8.63
2018-09-28T03:13:00.451Z,8.60
2018-09-28T03:15:32.531Z,7.83
2018-09-28T03:18:02.485Z,8.47
2018-09-28T03:20:32.244Z,9.13
2018-09-28T03:23:02.100Z,9.03
2018-09-28T03:25:31.891Z,8.60
2018-09-28T03:28:01.813Z,9.20
2018-09-28T03:30:31.461Z,8.27
2018-09-28T03:33:01.121Z,8.43
2018-09-28T03:35:30.879Z,9.67
2018-09-28T03:38:00.750Z,9.20
2018-09-28T03:40:30.485Z,8.27
2018-09-28T03:43:00.365Z,9.00
2018-09-28T03:45:30.151Z,8.27
2018-09-28T03:47:59.780Z,8.78
2018-09-28T03:50:29.771Z,11.00
2018-09-28T03:53:02.385Z,10.70
2018-09-28T03:55:32.016Z,10.53
2018-09-28T03:58:01.748Z,10.40
2018-09-28T04:00:31.703Z,12.00
2018-09-28T04:03:02.516Z,12.15
2018-09-28T04:05:43.664Z,11.90
2018-09-28T04:08:13.690Z,11.20
2018-09-28T04:10:43.872Z,12.63
2018-09-28T04:13:13.760Z,13.53
2018-09-28T04:15:43.375Z,12.23
2018-09-28T04:18:13.160Z,12.50
2018-09-28T04:20:42.746Z,11.83
2018-09-28T04:23:12.441Z,12.97
2018-09-28T04:30:39.804Z,11.50
2018-09-28T04:33:09.661Z,14.10
2018-09-28T04:35:39.457Z,15.27
2018-09-28T04:38:09.065Z,14.07
2018-09-28T04:40:38.731Z,15.40
2018-09-28T04:43:11.621Z,13.73
2018-09-28T04:45:41.507Z,14.23
2018-09-28T04:48:11.150Z,15.10
2018-09-28T04:50:40.986Z,14.47
2018-09-28T04:53:10.756Z,13.85
2018-09-28T04:55:40.470Z,14.60
2018-09-28T04:58:10.384Z,15.27
2018-09-28T05:00:40.240Z,15.90
2018-09-28T05:03:09.949Z,13.60
2018-09-28T05:05:39.509Z,15.10
2018-09-28T05:08:09.296Z,14.43
2018-09-28T05:10:39.034Z,15.13
2018-09-28T05:13:08.758Z,15.57
2018-09-28T05:15:38.349Z,13.57
2018-09-28T05:18:08.190Z,14.70
2018-09-28T05:20:37.796Z,15.10
2018-09-28T05:23:08.148Z,13.63
2018-09-28T05:25:37.958Z,14.27
2018-09-28T05:28:07.902Z,14.80
2018-09-28T05:30:44.970Z,15.10
2018-09-28T05:33:07.884Z,18.17
2018-09-28T05:35:37.722Z,18.33
2018-09-28T05:38:07.593Z,17.00
2018-09-28T05:40:37.566Z,17.20
2018-09-28T05:43:07.534Z,16.83
2018-09-28T05:45:37.290Z,17.17
2018-09-28T05:48:06.817Z,18.57
2018-09-28T05:50:36.610Z,25.90
2018-09-28T05:53:06.505Z,25.72
2018-09-28T05:55:36.304Z,24.27
2018-09-28T05:58:11.460Z,21.47
2018-09-28T06:00:46.381Z,21.73
2018-09-28T06:03:17.671Z,21.27
2018-09-28T06:05:52.587Z,22.63
2018-09-28T06:08:22.277Z,24.17
2018-09-28T06:10:52.041Z,21.10
2018-09-28T06:13:22.324Z,23.18
2018-09-28T06:15:52.267Z,25.55
2018-09-28T06:18:22.506Z,28.17
2018-09-28T06:20:52.299Z,28.90
2018-09-28T06:23:21.940Z,28.67
2018-09-28T06:25:51.612Z,28.30
2018-09-28T06:28:21.234Z,28.90
2018-09-28T06:30:50.854Z,26.27
2018-09-28T06:33:20.574Z,28.27
2018-09-28T06:35:50.496Z,28.65
2018-09-28T06:38:20.200Z,28.80
2018-09-28T06:40:49.760Z,30.83
2018-09-28T06:43:19.680Z,30.33
2018-09-28T06:45:50.475Z,29.67
2018-09-28T06:48:20.785Z,30.30
2018-09-28T06:50:50.437Z,31.83
2018-09-28T06:53:20.527Z,28.00
2018-09-28T06:55:50.354Z,32.83
2018-09-28T06:58:20.195Z,37.97
2018-09-28T07:00:49.952Z,37.77
2018-09-28T07:03:19.745Z,31.43
2018-09-28T07:05:49.431Z,29.63
2018-09-28T07:08:19.172Z,29.60
2018-09-28T07:10:48.872Z,31.40
2018-09-28T07:13:18.602Z,30.27
2018-09-28T07:15:48.177Z,28.20
2018-09-28T07:18:18.054Z,27.80
2018-09-28T07:20:47.856Z,28.00
2018-09-28T07:23:17.531Z,27.10
2018-09-28T07:25:47.184Z,27.58
2018-09-28T07:28:16.876Z,45.70
2018-09-28T07:30:46.502Z,28.00
2018-09-28T07:33:16.971Z,26.07
2018-09-28T07:35:46.876Z,25.03
2018-09-28T07:38:16.656Z,24.82
2018-09-28T07:40:46.514Z,23.80
2018-09-28T07:43:16.213Z,22.62
2018-09-28T07:45:45.946Z,23.63
2018-09-28T07:48:15.768Z,23.00
2018-09-28T07:50:45.596Z,22.30
2018-09-28T07:53:15.385Z,21.52
2018-09-28T07:55:45.086Z,22.67
2018-09-28T07:58:14.820Z,20.62
2018-09-28T08:00:44.680Z,20.57
2018-09-28T08:03:14.708Z,20.48
2018-09-28T08:05:44.535Z,16.00
2018-09-28T08:08:14.180Z,11.53
2018-09-28T08:10:44.002Z,8.40
2018-09-28T08:13:13.708Z,7.07
2018-09-28T08:15:43.375Z,9.50
2018-09-28T08:18:13.053Z,12.33
2018-09-28T08:20:42.851Z,6.77
2018-09-28T08:23:12.571Z,5.03
2018-09-28T08:25:43.335Z,4.10
2018-09-28T08:28:13.300Z,5.12
2018-09-28T08:30:42.938Z,4.30
2018-09-28T08:33:12.801Z,4.97
2018-09-28T08:35:42.527Z,4.47
2018-09-28T08:38:12.210Z,4.23
2018-09-28T08:40:41.907Z,4.50
2018-09-28T08:43:11.775Z,3.83
2018-09-28T08:45:41.846Z,3.33
2018-09-28T08:48:11.777Z,3.60
2018-09-28T08:50:47.916Z,4.30
2018-09-28T08:53:17.866Z,3.60
2018-09-28T08:55:47.707Z,3.90
2018-09-28T08:58:17.592Z,3.87
2018-09-28T09:00:47.200Z,4.30
2018-09-28T09:03:16.995Z,7.73
2018-09-28T09:05:46.871Z,10.88
2018-09-28T09:08:16.707Z,5.23
2018-09-28T09:10:46.350Z,6.03
2018-09-28T09:13:16.136Z,7.53
2018-09-28T09:15:45.995Z,5.97
2018-09-28T09:18:15.713Z,5.10
2018-09-28T09:20:45.470Z,4.67
2018-09-28T09:23:15.186Z,4.93
2018-09-28T09:25:44.956Z,4.50
2018-09-28T09:28:14.736Z,5.27
2018-09-28T09:30:45.178Z,4.33
2018-09-28T09:33:15.932Z,4.67
2018-09-28T09:35:45.662Z,5.20
2018-09-28T09:38:15.397Z,4.13
2018-09-28T09:40:45.069Z,4.10
2018-09-28T09:43:14.927Z,4.07
2018-09-28T09:45:44.886Z,3.83
2018-09-28T09:48:14.706Z,3.97
2018-09-28T09:50:44.745Z,3.70
2018-09-28T09:53:14.592Z,11.57
2018-09-28T09:55:44.302Z,6.37
2018-09-28T09:58:14.212Z,5.20
2018-09-28T10:00:49.025Z,4.90
2018-09-28T10:03:23.896Z,4.40
2018-09-28T10:05:53.778Z,5.23
2018-09-28T10:08:23.552Z,4.43
2018-09-28T10:10:53.336Z,4.80
2018-09-28T10:13:22.971Z,3.62
2018-09-28T10:15:52.627Z,4.03
2018-09-28T10:18:22.296Z,4.83
2018-09-28T10:20:52.017Z,4.50
2018-09-28T10:23:21.737Z,4.33
2018-09-28T10:25:51.456Z,4.03
2018-09-28T10:28:21.540Z,4.03
2018-09-28T10:30:51.210Z,3.90
2018-09-28T10:33:20.897Z,4.37
2018-09-28T10:35:50.672Z,3.87
2018-09-28T10:38:20.252Z,4.43
2018-09-28T10:40:49.936Z,4.50
2018-09-28T10:43:20.331Z,4.10
2018-09-28T10:45:50.026Z,3.07
2018-09-28T10:48:19.743Z,3.73
2018-09-28T10:50:49.440Z,4.17
2018-09-28T10:53:19.085Z,3.70
2018-09-28T10:55:48.772Z,3.23
2018-09-28T10:58:18.688Z,4.15
2018-09-28T11:00:48.432Z,3.93
2018-09-28T11:03:18.246Z,4.00
2018-09-28T11:05:48.013Z,3.93
2018-09-28T11:08:17.742Z,3.57
2018-09-28T11:10:47.503Z,3.90
2018-09-28T11:13:17.230Z,3.77
2018-09-28T11:15:47.036Z,3.65
2018-09-28T11:18:16.725Z,4.00
2018-09-28T11:20:46.611Z,3.33
2018-09-28T11:23:16.237Z,3.25
2018-09-28T11:25:45.996Z,4.37
2018-09-28T11:28:15.562Z,3.83
2018-09-28T11:30:45.703Z,3.50
2018-09-28T11:33:15.271Z,4.23
2018-09-28T11:35:45.093Z,3.80
2018-09-28T11:38:14.775Z,3.90
2018-09-28T11:40:44.541Z,4.40
2018-09-28T11:43:14.540Z,4.07
2018-09-28T11:45:44.352Z,3.97
2018-09-28T11:48:14.054Z,3.57
2018-09-28T11:50:44.247Z,4.57
2018-09-28T11:53:13.965Z,3.65
2018-09-28T11:55:43.706Z,4.07
2018-09-28T11:58:13.345Z,4.00
2018-09-28T12:00:43.256Z,4.47
2018-09-28T12:03:13.186Z,3.85
2018-09-28T12:05:42.873Z,4.00
2018-09-28T12:08:12.507Z,4.20
2018-09-28T12:10:42.277Z,3.57
2018-09-28T12:13:12.123Z,4.22
2018-09-28T12:15:41.971Z,3.77
2018-09-28T12:18:11.842Z,4.37
2018-09-28T12:20:41.685Z,4.73
2018-09-28T12:23:11.355Z,4.33
2018-09-28T12:25:42.082Z,4.10
2018-09-28T12:28:11.907Z,4.33
2018-09-28T12:30:41.745Z,3.53
2018-09-28T12:33:11.558Z,3.60
2018-09-28T12:35:41.342Z,4.33
2018-09-28T12:38:10.972Z,3.67
2018-09-28T12:40:40.852Z,3.87
2018-09-28T12:43:10.862Z,3.60
2018-09-28T12:45:40.895Z,3.37
2018-09-28T12:48:10.683Z,3.23
2018-09-28T12:50:40.608Z,3.65
2018-09-28T12:53:10.387Z,3.70
2018-09-28T12:55:40.228Z,3.10
2018-09-28T12:58:10.042Z,3.50
2018-09-28T13:00:39.850Z,3.67
2018-09-28T13:03:09.560Z,3.92
2018-09-28T13:05:39.241Z,3.90
2018-09-28T13:08:08.988Z,3.33
2018-09-28T13:10:38.662Z,3.57
2018-09-28T13:13:08.342Z,3.70
2018-09-28T13:15:38.252Z,3.90
2018-09-28T13:18:08.433Z,2.93
2018-09-28T13:20:38.675Z,3.20
2018-09-28T13:23:08.561Z,3.20
2018-09-28T13:25:38.224Z,3.67
2018-09-28T13:28:08.027Z,2.80
2018-09-28T13:30:38.003Z,3.10
2018-09-28T13:33:07.850Z,3.07
2018-09-28T13:35:37.476Z,3.40
2018-09-28T13:38:07.242Z,3.43
2018-09-28T13:40:36.864Z,3.52
2018-09-28T13:43:06.832Z,3.00
2018-09-28T13:45:36.724Z,2.80
2018-09-28T13:48:06.473Z,3.50
2018-09-28T13:50:36.434Z,2.87
2018-09-28T13:53:06.273Z,3.42
2018-09-28T13:55:36.360Z,2.58
2018-09-28T13:58:06.563Z,2.62
2018-09-28T14:00:36.455Z,3.42
2018-09-28T14:03:06.656Z,3.37
2018-09-28T14:05:37.772Z,3.05
2018-09-28T14:08:08.558Z,2.65
2018-09-28T14:10:39.714Z,3.67
2018-09-28T14:13:09.682Z,3.07
2018-09-28T14:15:39.588Z,3.40
2018-09-28T14:18:09.574Z,3.30
2018-09-28T14:20:39.340Z,3.27
2018-09-28T14:23:09.328Z,2.60
2018-09-28T14:25:39.258Z,2.83
2018-09-28T14:28:09.108Z,2.67
2018-09-28T14:30:39.076Z,2.50
2018-09-28T14:33:08.867Z,2.90
2018-09-28T14:35:38.612Z,3.60
2018-09-28T14:38:08.568Z,3.10
2018-09-28T14:40:38.317Z,3.10
2018-09-28T14:43:07.947Z,2.40
2018-09-28T14:45:37.646Z,2.80
2018-09-28T14:48:07.759Z,2.57
2018-09-28T14:50:37.591Z,2.22
2018-09-28T14:53:07.449Z,2.10
2018-09-28T14:55:37.236Z,2.40
2018-09-28T14:58:07.349Z,2.30
2018-09-28T15:00:37.881Z,2.15
2018-09-28T15:03:08.692Z,2.40
2018-09-28T15:05:38.395Z,2.07
2018-09-28T15:08:08.285Z,2.73
2018-09-28T15:10:38.180Z,2.60
2018-09-28T15:13:08.036Z,2.50
2018-09-28T15:15:37.913Z,2.40
2018-09-28T15:18:07.593Z,2.80
2018-09-28T15:20:37.376Z,2.20
2018-09-28T15:23:07.262Z,2.53
2018-09-28T15:25:37.037Z,2.72
2018-09-28T15:28:06.752Z,2.80
2018-09-28T15:30:36.648Z,3.10
2018-09-28T15:33:06.664Z,2.80
2018-09-28T15:35:36.630Z,2.57
2018-09-28T15:38:06.651Z,2.60
2018-09-28T15:40:36.536Z,2.83
2018-09-28T15:43:06.609Z,2.83
2018-09-28T15:45:36.618Z,2.52
2018-09-28T15:48:06.657Z,2.33
2018-09-28T15:50:36.923Z,2.50
2018-09-28T15:53:07.089Z,2.53
2018-09-28T15:55:38.246Z,2.53
2018-09-28T15:58:08.172Z,2.43
2018-09-28T16:00:37.893Z,2.37
2018-09-28T16:03:07.807Z,2.53
2018-09-28T16:05:38.565Z,2.37
2018-09-28T16:08:08.287Z,2.43
2018-09-28T16:10:38.013Z,2.30
2018-09-28T16:13:07.858Z,2.72
2018-09-28T16:15:37.741Z,2.50
2018-09-28T16:18:07.693Z,2.80
2018-09-28T16:20:37.631Z,2.57
2018-09-28T16:23:07.554Z,2.23
2018-09-28T16:25:37.231Z,2.23
2018-09-28T16:28:06.961Z,2.67
2018-09-28T16:30:36.689Z,2.75
2018-09-28T16:33:06.625Z,2.77
2018-09-28T16:35:36.626Z,3.10
2018-09-28T16:38:06.952Z,2.77
2018-09-28T16:40:37.162Z,2.90
2018-09-28T16:43:06.990Z,2.57
2018-09-28T16:45:37.422Z,2.12
2018-09-28T16:48:07.707Z,2.60
2018-09-28T16:50:37.580Z,2.10
2018-09-28T16:53:07.869Z,2.07
2018-09-28T16:55:37.543Z,2.10
2018-09-28T16:58:07.584Z,2.20
2018-09-28T17:00:38.355Z,2.30
2018-09-28T17:03:09.280Z,2.00
2018-09-28T17:05:39.549Z,2.20
2018-09-28T17:08:09.903Z,2.27
2018-09-28T17:10:40.395Z,1.77
2018-09-28T17:18:08.900Z,1.97
2018-09-28T17:20:38.812Z,2.23
2018-09-28T17:23:09.020Z,1.70
2018-09-28T17:25:38.802Z,2.33
2018-09-28T17:28:08.928Z,2.37
2018-09-28T17:30:39.097Z,2.07
2018-09-28T17:33:09.167Z,2.30
2018-09-28T17:35:39.629Z,2.30
2018-09-28T17:38:09.670Z,2.33
2018-09-28T17:40:39.762Z,2.47
2018-09-28T17:43:09.707Z,2.40
2018-09-28T17:45:39.595Z,2.50
2018-09-28T17:48:09.642Z,2.45
2018-09-28T17:50:39.478Z,2.43
2018-09-28T17:53:09.732Z,2.25
2018-09-28T17:55:39.400Z,2.30
2018-09-28T17:58:10.644Z,2.60
2018-09-28T18:00:40.744Z,2.30
2018-09-28T18:03:11.065Z,2.67
2018-09-28T18:05:40.863Z,2.30
2018-09-28T18:08:10.954Z,2.27
2018-09-28T18:10:40.798Z,2.50
2018-09-28T18:13:10.694Z,2.30
2018-09-28T18:15:41.281Z,2.20
2018-09-28T18:18:11.330Z,2.17
2018-09-28T18:20:41.004Z,2.40
2018-09-28T18:23:10.870Z,2.40
2018-09-28T18:25:40.871Z,2.62
2018-09-28T18:28:10.774Z,2.30
2018-09-28T18:30:40.726Z,2.63
2018-09-28T18:33:10.657Z,2.20
2018-09-28T18:35:40.658Z,2.80
2018-09-28T18:38:10.658Z,2.33
2018-09-28T18:40:40.591Z,2.43
2018-09-28T18:43:10.693Z,2.80
2018-09-28T18:45:40.901Z,2.62
2018-09-28T18:48:11.334Z,2.80
2018-09-28T18:50:41.637Z,2.57
2018-09-28T18:53:11.713Z,2.90
2018-09-28T18:55:42.233Z,2.60
2018-09-28T18:58:12.335Z,2.77
2018-09-28T19:00:42.300Z,2.40
2018-09-28T19:03:12.413Z,3.03
2018-09-28T19:05:42.317Z,12.18
2018-09-28T19:08:12.478Z,11.10
2018-09-28T19:10:42.284Z,4.13
2018-09-28T19:13:12.594Z,2.90
2018-09-28T19:15:42.821Z,2.37
2018-09-28T19:18:12.923Z,2.37
2018-09-28T19:20:42.869Z,2.90
2018-09-28T19:23:13.160Z,2.45
2018-09-28T19:25:43.722Z,3.20
2018-09-28T19:28:14.122Z,2.57
2018-09-28T19:30:44.612Z,2.60
2018-09-28T19:33:14.389Z,3.20
2018-09-28T19:35:44.655Z,3.17
2018-09-28T19:38:14.644Z,2.47
2018-09-28T19:40:44.801Z,3.27
2018-09-28T19:43:14.827Z,2.80
2018-09-28T19:45:45.226Z,2.67
2018-09-28T19:48:15.578Z,2.47
2018-09-28T19:50:45.855Z,3.10
2018-09-28T19:53:16.303Z,2.80
2018-09-28T19:55:46.893Z,2.97
2018-09-28T19:58:17.013Z,3.50
2018-09-28T20:00:47.216Z,3.53
2018-09-28T20:03:17.321Z,3.00
2018-09-28T20:05:47.232Z,8.50
2018-09-28T20:08:17.242Z,13.37
2018-09-28T20:10:47.764Z,6.70
2018-09-28T20:13:17.919Z,3.60
2018-09-28T20:15:47.903Z,3.37
2018-09-28T20:18:18.042Z,2.80
2018-09-28T20:20:48.099Z,2.80
2018-09-28T20:23:18.304Z,3.17
2018-09-28T20:25:48.237Z,2.80
2018-09-28T20:28:18.451Z,2.63
2018-09-28T20:30:48.293Z,2.73
2018-09-28T20:33:18.590Z,2.60
2018-09-28T20:35:48.690Z,3.50
2018-09-28T20:38:19.398Z,2.58
2018-09-28T20:40:50.344Z,3.00
2018-09-28T20:43:20.249Z,2.85
2018-09-28T20:45:50.028Z,2.90
2018-09-28T20:48:20.251Z,2.90
2018-09-28T20:50:50.387Z,3.53
2018-09-28T20:53:20.324Z,2.63
2018-09-28T20:55:50.298Z,3.52
2018-09-28T20:58:20.209Z,3.47
2018-09-28T21:00:49.920Z,3.83
2018-09-28T21:03:19.889Z,3.80
2018-09-28T21:05:49.862Z,3.20
2018-09-28T21:08:19.654Z,3.47
2018-09-28T21:10:49.275Z,3.97
2018-09-28T21:13:19.151Z,3.43
2018-09-28T21:15:49.149Z,3.17
2018-09-28T21:18:19.213Z,10.57
2018-09-28T21:20:49.054Z,21.23
2018-09-28T21:23:19.110Z,13.83
2018-09-28T21:25:48.998Z,6.57
2018-09-28T21:28:19.300Z,4.60
2018-09-28T21:30:49.179Z,3.50
2018-09-28T21:33:18.925Z,3.80
2018-09-28T21:35:48.989Z,3.80
2018-09-28T21:38:18.895Z,3.70
2018-09-28T21:40:49.076Z,4.00
2018-09-28T21:43:19.949Z,3.73
2018-09-28T21:45:49.805Z,3.40
2018-09-28T21:48:19.588Z,3.53
2018-09-28T21:50:49.541Z,3.80
2018-09-28T21:53:19.384Z,3.65
2018-09-28T21:55:49.203Z,3.40
2018-09-28T21:58:18.951Z,3.37
2018-09-28T22:00:52.710Z,3.42
2018-09-28T22:03:22.524Z,3.43
2018-09-28T22:05:52.475Z,3.40
2018-09-28T22:08:22.284Z,3.50
2018-09-28T22:10:52.065Z,4.07
2018-09-28T22:13:21.887Z,2.90
2018-09-28T22:15:51.570Z,3.53
2018-09-28T22:18:27.805Z,3.60
2018-09-28T22:20:57.599Z,3.30
2018-09-28T22:23:27.324Z,4.37
2018-09-28T22:25:57.271Z,4.25
2018-09-28T22:28:26.998Z,3.90
2018-09-28T22:30:56.629Z,3.90
2018-09-28T22:33:26.448Z,3.50
2018-09-28T22:35:56.159Z,3.92
2018-09-28T22:38:26.110Z,3.85
2018-09-28T22:40:56.204Z,4.13
2018-09-28T22:43:25.975Z,3.90
2018-09-28T22:45:55.676Z,3.60
2018-09-28T22:48:25.612Z,3.70
2018-09-28T22:50:55.472Z,3.20
2018-09-28T22:53:25.264Z,3.40
2018-09-28T22:55:54.905Z,3.03
2018-09-28T22:58:24.774Z,3.27
2018-09-28T23:00:54.678Z,3.30
2018-09-28T23:03:24.259Z,3.70
2018-09-28T23:05:54.199Z,3.03
2018-09-28T23:08:23.995Z,3.60
2018-09-28T23:10:53.652Z,3.80
2018-09-28T23:13:23.404Z,3.70
2018-09-28T23:15:53.103Z,4.10
2018-09-28T23:18:22.744Z,3.20
2018-09-28T23:20:52.533Z,3.50
2018-09-28T23:23:22.066Z,3.70
2018-09-28T23:25:51.784Z,3.53
2018-09-28T23:28:21.373Z,3.20
2018-09-28T23:30:51.059Z,2.97
2018-09-28T23:33:20.866Z,3.45
2018-09-28T23:35:50.678Z,3.37
2018-09-28T23:38:20.445Z,3.37
2018-09-28T23:40:49.982Z,3.27
2018-09-28T23:43:19.570Z,3.00
2018-09-28T23:45:49.255Z,3.33
2018-09-28T23:48:18.963Z,3.53
2018-09-28T23:50:48.488Z,3.08
2018-09-28T23:53:18.105Z,2.77
2018-09-28T23:55:47.718Z,4.03
2018-09-28T23:58:17.298Z,3.35
